Time;durP1;ratioP1;P1;durP2;ratioP2;P2;SDS_P1;SDS_P2;PMS_P1;PMS_P2;Temp;Humidity;BMP_temperature;BMP_pressure;BME280_temperature;BME280_humidity;BME280_pressure;Samples;Min_cycle;Max_cycle;Signal;HPM_P1;HPM_P2
2022/01/27 00:05:17;;;;;;;23.60;8.13;;;;;;;;;;4966731;28;20382;-86
2022/01/27 00:07:44;;;;;;;21.13;9.18;;;;;;;;;;4949804;28;20138;-86
2022/01/27 00:12:37;;;;;;;24.92;9.73;;;;;;;;;;4961432;28;20035;-86
2022/01/27 00:15:14;;;;;;;14.27;6.75;;;;;;;;;;4951281;28;20035;-85
2022/01/27 00:17:47;;;;;;;31.63;10.25;;;;;;;;;;4947697;28;20038;-86
2022/01/27 00:20:14;;;;;;;28.63;9.50;;;;;;;;;;4947176;28;20486;-85
2022/01/27 00:22:42;;;;;;;26.35;9.43;;;;;;;;;;4946680;28;20129;-86
2022/01/27 00:25:08;;;;;;;25.10;9.25;;;;;;;;;;4941347;28;20440;-85
2022/01/27 00:27:34;;;;;;;24.88;8.43;;;;;;;;;;4964475;28;20090;-86
2022/01/27 00:30:04;;;;;;;24.73;8.45;;;;;;;;;;4965491;28;20094;-85
2022/01/27 00:32:31;;;;;;;21.73;9.13;;;;;;;;;;4949192;28;20035;-85
2022/01/27 00:34:58;;;;;;;31.13;10.80;;;;;;;;;;4977999;28;20153;-85
2022/01/27 00:37:24;;;;;;;20.95;8.38;;;;;;;;;;4966824;28;20090;-85
2022/01/27 00:39:50;;;;;;;25.58;10.23;;;;;;;;;;4941619;28;20041;-85
2022/01/27 00:42:16;;;;;;;26.60;8.93;;;;;;;;;;4981040;28;20038;-85
2022/01/27 00:44:42;;;;;;;19.52;8.27;;;;;;;;;;4966040;28;20050;-85
2022/01/27 00:47:08;;;;;;;23.42;8.23;;;;;;;;;;4948815;28;20509;-85
2022/01/27 00:49:36;;;;;;;34.60;12.65;;;;;;;;;;4951076;28;20558;-85
2022/01/27 00:52:03;;;;;;;21.08;8.23;;;;;;;;;;4979444;28;20505;-86
2022/01/27 00:54:30;;;;;;;26.58;8.82;;;;;;;;;;4945963;28;20030;-86
2022/01/27 00:59:34;;;;;;;25.92;9.52;;;;;;;;;;4967206;28;20034;-85
2022/01/27 01:02:16;;;;;;;34.72;12.07;;;;;;;;;;4940276;28;20154;-85
2022/01/27 01:04:46;;;;;;;26.33;8.45;;;;;;;;;;4964780;28;20114;-86
2022/01/27 01:07:14;;;;;;;30.55;10.23;;;;;;;;;;4967662;28;20023;-85
2022/01/27 01:36:57;;;;;;;20.17;8.23;;;;;;;;;;4970864;28;20037;-85
2022/01/27 01:39:24;;;;;;;32.70;11.82;;;;;;;;;;4964620;28;20038;-86
2022/01/27 01:41:50;;;;;;;30.08;10.13;;;;;;;;;;4981615;28;20067;-85
2022/01/27 01:44:16;;;;;;;23.10;8.95;;;;;;;;;;4963666;28;20393;-86
2022/01/27 01:46:42;;;;;;;22.02;10.45;;;;;;;;;;4968178;28;20497;-85
2022/01/27 01:49:08;;;;;;;25.02;9.15;;;;;;;;;;4966056;28;20036;-85
2022/01/27 01:51:36;;;;;;;23.25;8.40;;;;;;;;;;4969887;28;20046;-86
2022/01/27 01:54:02;;;;;;;25.52;8.65;;;;;;;;;;4967924;28;20022;-85
2022/01/27 01:56:29;;;;;;;24.60;9.32;;;;;;;;;;4968057;28;20090;-86
2022/01/27 01:58:55;;;;;;;26.25;10.35;;;;;;;;;;4966937;28;20441;-84
2022/01/27 02:01:21;;;;;;;26.83;9.45;;;;;;;;;;4965047;28;20746;-85
2022/01/27 02:03:47;;;;;;;35.92;11.23;;;;;;;;;;4964458;28;20481;-85
2022/01/27 02:06:32;;;;;;;40.47;11.43;;;;;;;;;;4987121;28;20645;-85
2022/01/27 02:19:41;;;;;;;30.50;10.80;;;;;;;;;;4989225;28;20041;-85
2022/01/27 02:22:07;;;;;;;43.88;14.65;;;;;;;;;;4968474;28;20030;-85
2022/01/27 02:24:34;;;;;;;28.63;11.27;;;;;;;;;;4972015;28;20053;-86
2022/01/27 02:27:00;;;;;;;34.47;12.63;;;;;;;;;;4989943;28;20037;-85
2022/01/27 02:29:27;;;;;;;29.15;12.15;;;;;;;;;;4996512;28;20386;-85
2022/01/27 02:31:55;;;;;;;24.90;9.75;;;;;;;;;;4984845;28;20031;-85
2022/01/27 02:34:21;;;;;;;27.45;11.18;;;;;;;;;;4966787;28;20050;-85
2022/01/27 02:36:47;;;;;;;34.85;11.43;;;;;;;;;;4984453;28;20022;-85
2022/01/27 02:39:14;;;;;;;40.28;11.57;;;;;;;;;;4997592;28;20158;-85
2022/01/27 02:41:49;;;;;;;23.08;10.55;;;;;;;;;;4974312;28;20041;-86
2022/01/27 02:44:37;;;;;;;30.98;11.55;;;;;;;;;;4960425;28;20053;-86
2022/01/27 02:47:04;;;;;;;29.35;11.88;;;;;;;;;;4983320;28;20037;-85
2022/01/27 02:49:30;;;;;;;32.55;13.45;;;;;;;;;;4975072;28;20097;-85
2022/01/27 02:51:56;;;;;;;35.47;12.68;;;;;;;;;;4963124;28;20030;-86
2022/01/27 02:54:22;;;;;;;44.50;15.07;;;;;;;;;;5002549;28;20026;-85
2022/01/27 02:56:49;;;;;;;28.23;9.48;;;;;;;;;;4964982;28;20045;-86
2022/01/27 02:59:15;;;;;;;40.35;13.55;;;;;;;;;;4987110;28;20034;-86
2022/01/27 03:01:45;;;;;;;28.98;12.20;;;;;;;;;;5000352;28;20069;-85
2022/01/27 03:04:11;;;;;;;29.85;13.30;;;;;;;;;;4984290;28;20037;-85
2022/01/27 03:06:37;;;;;;;38.42;13.38;;;;;;;;;;4971581;28;20034;-86
2022/01/27 03:09:03;;;;;;;31.05;12.43;;;;;;;;;;4970454;28;20026;-85
2022/01/27 03:11:35;;;;;;;25.90;10.10;;;;;;;;;;4969945;28;20038;-85
2022/01/27 03:14:02;;;;;;;36.65;14.50;;;;;;;;;;4981453;28;20121;-84
2022/01/27 03:16:28;;;;;;;36.25;13.63;;;;;;;;;;5005222;28;20026;-85
2022/01/27 03:18:54;;;;;;;31.83;11.90;;;;;;;;;;4967670;28;20050;-84
2022/01/27 03:21:20;;;;;;;22.42;7.88;;;;;;;;;;4967707;28;20027;-85
2022/01/27 03:23:47;;;;;;;21.88;10.38;;;;;;;;;;4972387;28;20496;-84
2022/01/27 03:26:13;;;;;;;36.50;12.68;;;;;;;;;;4970911;28;20069;-83
2022/01/27 03:28:39;;;;;;;44.55;12.02;;;;;;;;;;4978946;28;20377;-85
2022/01/27 03:31:05;;;;;;;27.38;10.30;;;;;;;;;;4962487;28;20038;-84
2022/01/27 03:33:31;;;;;;;28.70;9.52;;;;;;;;;;5002028;28;20026;-85
2022/01/27 03:36:11;;;;;;;28.65;10.93;;;;;;;;;;4946038;28;20494;-84
2022/01/27 03:38:37;;;;;;;30.75;13.27;;;;;;;;;;4962329;28;20039;-85
2022/01/27 03:41:06;;;;;;;42.08;11.70;;;;;;;;;;4947731;28;20534;-85
2022/01/27 03:43:32;;;;;;;38.47;13.65;;;;;;;;;;4951914;28;20042;-86
2022/01/27 03:45:59;;;;;;;29.83;12.35;;;;;;;;;;4946481;28;20490;-85
2022/01/27 03:48:25;;;;;;;28.77;11.85;;;;;;;;;;4946595;28;20041;-85
2022/01/27 03:50:51;;;;;;;25.80;11.45;;;;;;;;;;4949931;28;20029;-85
2022/01/27 03:53:17;;;;;;;21.45;10.68;;;;;;;;;;4964857;28;20398;-86
2022/01/27 03:55:43;;;;;;;30.77;10.43;;;;;;;;;;4967793;28;20054;-86
2022/01/27 03:58:10;;;;;;;33.47;9.18;;;;;;;;;;4946895;28;20708;-85
2022/01/27 04:00:36;;;;;;;45.40;14.00;;;;;;;;;;4948407;28;20478;-85
2022/01/27 04:03:05;;;;;;;30.33;11.88;;;;;;;;;;4946677;28;20030;-85
2022/01/27 04:05:37;;;;;;;30.25;10.40;;;;;;;;;;4948329;28;20563;-85
2022/01/27 04:08:04;;;;;;;45.78;11.93;;;;;;;;;;4948170;28;20038;-86
2022/01/27 04:10:31;;;;;;;42.83;14.13;;;;;;;;;;4949404;28;20161;-85
2022/01/27 04:12:57;;;;;;;29.10;9.27;;;;;;;;;;4962596;28;20031;-86
2022/01/27 04:15:23;;;;;;;49.80;15.07;;;;;;;;;;4965516;28;20411;-85
2022/01/27 04:17:49;;;;;;;56.50;12.38;;;;;;;;;;4966073;28;20033;-85
2022/01/27 04:20:15;;;;;;;31.13;10.93;;;;;;;;;;4945450;28;20530;-85
2022/01/27 04:22:41;;;;;;;29.35;10.05;;;;;;;;;;4968354;28;20030;-85
2022/01/27 04:25:08;;;;;;;40.42;12.18;;;;;;;;;;4965617;28;20106;-85
2022/01/27 04:27:37;;;;;;;40.72;13.88;;;;;;;;;;4964964;28;20031;-85
2022/01/27 04:30:05;;;;;;;45.80;15.13;;;;;;;;;;4941453;28;20110;-85
2022/01/27 04:32:39;;;;;;;30.95;11.70;;;;;;;;;;4948419;28;20498;-85
2022/01/27 04:35:07;;;;;;;27.42;10.13;;;;;;;;;;4970896;28;20387;-85
2022/01/27 04:37:39;;;;;;;22.80;9.85;;;;;;;;;;4970493;28;20402;-85
2022/01/27 04:40:12;;;;;;;27.10;9.70;;;;;;;;;;4968880;28;20138;-85
2022/01/27 04:45:15;;;;;;;34.60;12.10;;;;;;;;;;4987740;28;20064;-85
2022/01/27 04:47:46;;;;;;;44.35;12.63;;;;;;;;;;4962220;28;20158;-85
2022/01/27 04:50:12;;;;;;;28.10;9.25;;;;;;;;;;4972253;28;20064;-85
2022/01/27 04:52:43;;;;;;;31.30;11.75;;;;;;;;;;4970042;28;20405;-85
2022/01/27 04:55:12;;;;;;;26.73;10.93;;;;;;;;;;4962838;28;20038;-85
2022/01/27 04:57:41;;;;;;;36.30;11.00;;;;;;;;;;4986041;28;20033;-86
2022/01/27 05:00:09;;;;;;;26.15;8.82;;;;;;;;;;4993963;28;20026;-85
2022/01/27 05:02:49;;;;;;;48.15;14.40;;;;;;;;;;4997700;28;20505;-85
2022/01/27 05:05:15;;;;;;;44.17;10.15;;;;;;;;;;4965876;28;20034;-85
2022/01/27 05:07:41;;;;;;;35.55;12.52;;;;;;;;;;4987727;28;20034;-84
2022/01/27 05:10:14;;;;;;;30.25;10.77;;;;;;;;;;4980216;28;20458;-84
2022/01/27 05:12:47;;;;;;;40.03;11.18;;;;;;;;;;4966029;28;20409;-83
2022/01/27 05:15:13;;;;;;;26.90;9.93;;;;;;;;;;4969631;28;20038;-83
2022/01/27 05:17:39;;;;;;;42.28;13.63;;;;;;;;;;4998541;28;20023;-82
2022/01/27 05:20:06;;;;;;;19.25;7.82;;;;;;;;;;4966567;28;20146;-82
2022/01/27 05:22:32;;;;;;;47.28;14.15;;;;;;;;;;4968475;28;20039;-82
2022/01/27 05:24:58;;;;;;;40.95;15.25;;;;;;;;;;4982793;28;20035;-82
2022/01/27 05:27:24;;;;;;;35.90;10.60;;;;;;;;;;4967214;28;20450;-82
2022/01/27 05:29:52;;;;;;;55.55;16.70;;;;;;;;;;4988990;28;20460;-82
2022/01/27 05:32:18;;;;;;;29.70;10.63;;;;;;;;;;4964855;28;20036;-82
2022/01/27 05:34:44;;;;;;;41.10;11.57;;;;;;;;;;4949847;28;20477;-82
2022/01/27 05:37:10;;;;;;;35.58;11.57;;;;;;;;;;4953205;28;20493;-82
2022/01/27 05:39:36;;;;;;;40.80;11.38;;;;;;;;;;4966281;28;20086;-82
2022/01/27 05:42:02;;;;;;;28.73;11.45;;;;;;;;;;4986076;28;20426;-82
2022/01/27 05:44:30;;;;;;;33.88;8.57;;;;;;;;;;4961974;28;20387;-83
2022/01/27 05:46:56;;;;;;;25.20;8.30;;;;;;;;;;4971607;28;20127;-82
2022/01/27 05:49:23;;;;;;;33.13;9.95;;;;;;;;;;4984283;28;20046;-82
2022/01/27 05:51:49;;;;;;;36.22;11.13;;;;;;;;;;4968500;28;20042;-82
2022/01/27 05:54:15;;;;;;;49.15;12.27;;;;;;;;;;4967351;28;20020;-82
2022/01/27 05:56:41;;;;;;;44.65;9.60;;;;;;;;;;4983014;28;20415;-82
2022/01/27 05:59:07;;;;;;;23.17;8.68;;;;;;;;;;4951581;28;20174;-82
2022/01/27 06:01:33;;;;;;;35.53;11.05;;;;;;;;;;4952628;28;20045;-80
2022/01/27 06:03:59;;;;;;;38.67;10.57;;;;;;;;;;4948465;28;20034;-81
2022/01/27 06:06:25;;;;;;;45.72;13.35;;;;;;;;;;4966044;28;20116;-81
2022/01/27 06:08:51;;;;;;;41.70;11.45;;;;;;;;;;4968647;28;20035;-81
2022/01/27 06:11:17;;;;;;;44.83;13.15;;;;;;;;;;4981208;28;20042;-81
2022/01/27 06:13:44;;;;;;;28.67;10.52;;;;;;;;;;4968697;28;20390;-81
2022/01/27 06:16:11;;;;;;;35.75;12.00;;;;;;;;;;4966223;28;20391;-80
2022/01/27 06:18:38;;;;;;;19.00;6.63;;;;;;;;;;4966358;28;20059;-80
2022/01/27 06:21:05;;;;;;;24.75;7.18;;;;;;;;;;4951301;28;20406;-80
2022/01/27 06:23:31;;;;;;;41.90;10.30;;;;;;;;;;4948225;28;20023;-81
2022/01/27 06:25:58;;;;;;;33.33;11.63;;;;;;;;;;4973287;28;20463;-82
2022/01/27 06:28:24;;;;;;;26.90;9.50;;;;;;;;;;4967451;28;20034;-81
2022/01/27 06:30:50;;;;;;;19.35;7.38;;;;;;;;;;4955050;28;20045;-81
2022/01/27 06:33:16;;;;;;;28.88;7.32;;;;;;;;;;4966654;28;20031;-81
2022/01/27 06:35:42;;;;;;;16.10;7.40;;;;;;;;;;4972826;28;20106;-81
2022/01/27 06:38:08;;;;;;;27.48;7.22;;;;;;;;;;4948660;28;20033;-81
2022/01/27 06:40:34;;;;;;;22.98;7.57;;;;;;;;;;4950712;28;20086;-81
2022/01/27 06:43:00;;;;;;;21.40;7.85;;;;;;;;;;4946194;28;20034;-82
2022/01/27 06:45:26;;;;;;;28.70;9.60;;;;;;;;;;4949874;28;20030;-81
2022/01/27 06:47:52;;;;;;;24.52;7.75;;;;;;;;;;4945510;28;20031;-81
2022/01/27 06:50:19;;;;;;;26.15;9.07;;;;;;;;;;4945701;28;20022;-81
2022/01/27 06:52:45;;;;;;;15.43;5.75;;;;;;;;;;4948009;28;20550;-81
2022/01/27 06:55:12;;;;;;;15.13;6.40;;;;;;;;;;4959359;28;20110;-81
2022/01/27 06:57:38;;;;;;;32.90;10.07;;;;;;;;;;4950208;28;20055;-80
2022/01/27 07:00:05;;;;;;;30.42;9.27;;;;;;;;;;4966332;28;20031;-81
2022/01/27 07:02:31;;;;;;;16.45;5.15;;;;;;;;;;4979267;28;20031;-81
2022/01/27 07:04:57;;;;;;;24.45;8.55;;;;;;;;;;4959284;28;20369;-81
2022/01/27 07:07:23;;;;;;;21.70;6.72;;;;;;;;;;4940687;28;20095;-80
2022/01/27 07:09:49;;;;;;;27.95;7.63;;;;;;;;;;4945954;28;20042;-80
2022/01/27 07:12:15;;;;;;;17.10;6.50;;;;;;;;;;4964908;28;20034;-80
2022/01/27 07:14:41;;;;;;;24.27;8.20;;;;;;;;;;4947956;28;20082;-80
2022/01/27 07:17:07;;;;;;;17.60;5.40;;;;;;;;;;4942154;28;20131;-80
2022/01/27 07:19:33;;;;;;;19.42;7.53;;;;;;;;;;4951512;28;20142;-81
2022/01/27 07:21:59;;;;;;;22.35;7.25;;;;;;;;;;4946196;28;20026;-80
2022/01/27 07:24:26;;;;;;;24.00;6.93;;;;;;;;;;4952136;28;20083;-81
2022/01/27 07:26:52;;;;;;;17.27;8.20;;;;;;;;;;4947224;28;20118;-80
2022/01/27 07:29:18;;;;;;;10.02;5.15;;;;;;;;;;4945254;28;20479;-81
2022/01/27 07:31:44;;;;;;;32.08;8.88;;;;;;;;;;4942977;28;20038;-81
2022/01/27 07:34:10;;;;;;;46.42;9.35;;;;;;;;;;4946246;28;20527;-81
2022/01/27 07:36:54;;;;;;;18.80;6.57;;;;;;;;;;4948650;28;20142;-81
2022/01/27 07:39:20;;;;;;;20.90;7.13;;;;;;;;;;4963152;28;20031;-81
2022/01/27 07:41:46;;;;;;;28.30;7.57;;;;;;;;;;4951746;28;20030;-81
2022/01/27 07:44:12;;;;;;;15.70;6.25;;;;;;;;;;4945866;28;20027;-82
2022/01/27 07:46:38;;;;;;;40.92;10.70;;;;;;;;;;4966603;28;20504;-81
2022/01/27 07:49:05;;;;;;;58.05;10.98;;;;;;;;;;4964407;28;20597;-82
2022/01/27 07:51:31;;;;;;;27.98;8.52;;;;;;;;;;4953805;28;20123;-82
2022/01/27 07:53:57;;;;;;;34.08;8.90;;;;;;;;;;4942409;28;20047;-82
2022/01/27 07:56:23;;;;;;;25.15;6.88;;;;;;;;;;4945826;28;20039;-82
2022/01/27 07:58:49;;;;;;;23.77;7.30;;;;;;;;;;4945371;28;20039;-83
2022/01/27 08:01:15;;;;;;;37.00;8.55;;;;;;;;;;4945884;28;20026;-83
2022/01/27 08:03:41;;;;;;;34.13;8.20;;;;;;;;;;4963343;28;20206;-83
2022/01/27 08:06:07;;;;;;;20.13;6.30;;;;;;;;;;4945733;28;20039;-83
2022/01/27 08:08:34;;;;;;;30.60;8.32;;;;;;;;;;4950362;28;20126;-83
2022/01/27 08:11:00;;;;;;;18.85;5.50;;;;;;;;;;4949952;28;20035;-83
2022/01/27 08:13:27;;;;;;;35.25;6.53;;;;;;;;;;4964610;28;20522;-83
2022/01/27 08:15:53;;;;;;;27.65;8.23;;;;;;;;;;4944237;28;20045;-83
2022/01/27 08:18:19;;;;;;;24.05;6.40;;;;;;;;;;4946141;28;20494;-83
2022/01/27 08:20:47;;;;;;;35.20;8.68;;;;;;;;;;4946815;28;20034;-83
2022/01/27 08:23:14;;;;;;;22.55;6.63;;;;;;;;;;4948086;28;20043;-83
2022/01/27 08:25:41;;;;;;;51.70;9.02;;;;;;;;;;4982498;28;20398;-83
2022/01/27 08:28:18;;;;;;;32.83;7.13;;;;;;;;;;4945489;28;20497;-83
2022/01/27 08:30:48;;;;;;;28.50;6.57;;;;;;;;;;4962112;28;20042;-83
2022/01/27 08:33:17;;;;;;;35.63;8.18;;;;;;;;;;4963230;28;20030;-82
2022/01/27 08:35:43;;;;;;;21.55;6.60;;;;;;;;;;4980003;28;20057;-83
2022/01/27 08:38:09;;;;;;;32.63;7.90;;;;;;;;;;4947694;28;20038;-84
2022/01/27 08:40:36;;;;;;;21.13;7.25;;;;;;;;;;4969518;28;20077;-83
2022/01/27 08:43:02;;;;;;;25.92;6.43;;;;;;;;;;4962417;28;20031;-84
2022/01/27 08:45:28;;;;;;;10.82;3.08;;;;;;;;;;4964150;28;20070;-83
2022/01/27 08:47:57;;;;;;;25.88;6.03;;;;;;;;;;4975037;28;20425;-83
2022/01/27 08:50:24;;;;;;;28.33;6.55;;;;;;;;;;4942657;28;20034;-83
2022/01/27 08:52:51;;;;;;;15.35;4.15;;;;;;;;;;4942181;28;20401;-82
2022/01/27 08:55:17;;;;;;;15.75;4.75;;;;;;;;;;4975250;28;20026;-84
2022/01/27 08:57:43;;;;;;;39.42;6.63;;;;;;;;;;4946236;28;20026;-83
2022/01/27 09:00:12;;;;;;;9.65;4.50;;;;;;;;;;4953679;28;20039;-83
2022/01/27 09:02:38;;;;;;;27.33;5.75;;;;;;;;;;4980283;28;20059;-83
2022/01/27 09:05:04;;;;;;;16.23;3.67;;;;;;;;;;4941940;28;20035;-83
2022/01/27 09:07:31;;;;;;;32.33;5.55;;;;;;;;;;4958922;28;20042;-82
2022/01/27 09:09:57;;;;;;;16.77;4.50;;;;;;;;;;4944610;28;20034;-83
2022/01/27 09:12:23;;;;;;;22.50;5.47;;;;;;;;;;4942389;28;21833;-84
2022/01/27 09:14:49;;;;;;;31.75;7.07;;;;;;;;;;4966481;28;20031;-83
2022/01/27 09:17:15;;;;;;;26.30;7.30;;;;;;;;;;4953072;28;20050;-83
2022/01/27 09:19:42;;;;;;;20.42;4.88;;;;;;;;;;4943144;28;20077;-84
2022/01/27 09:22:14;;;;;;;27.13;4.30;;;;;;;;;;4958994;28;20031;-82
2022/01/27 09:25:04;;;;;;;24.40;4.60;;;;;;;;;;4964819;28;20082;-83
2022/01/27 09:27:30;;;;;;;17.38;4.55;;;;;;;;;;4961642;28;20129;-83
2022/01/27 09:29:56;;;;;;;16.27;3.95;;;;;;;;;;4948796;28;20874;-84
2022/01/27 09:32:25;;;;;;;20.23;5.30;;;;;;;;;;4949270;28;20098;-83
2022/01/27 09:34:52;;;;;;;11.50;2.58;;;;;;;;;;4965033;28;20023;-83
2022/01/27 09:37:18;;;;;;;15.55;3.17;;;;;;;;;;4953549;28;20047;-83
2022/01/27 09:39:45;;;;;;;22.33;5.78;;;;;;;;;;4965539;28;20681;-84
2022/01/27 09:42:11;;;;;;;10.73;2.80;;;;;;;;;;4950931;28;20045;-83
2022/01/27 09:44:40;;;;;;;15.43;3.30;;;;;;;;;;4942246;28;20035;-83
2022/01/27 09:47:08;;;;;;;24.85;5.22;;;;;;;;;;4950731;28;20039;-82
2022/01/27 09:49:40;;;;;;;21.52;4.15;;;;;;;;;;4954848;28;20410;-83
2022/01/27 09:52:06;;;;;;;13.45;2.42;;;;;;;;;;4950089;28;20073;-83
2022/01/27 09:54:33;;;;;;;15.50;4.22;;;;;;;;;;4964267;28;20360;-83
2022/01/27 09:56:59;;;;;;;20.58;5.30;;;;;;;;;;4947739;28;20035;-84
2022/01/27 09:59:26;;;;;;;13.73;4.13;;;;;;;;;;4946338;28;20028;-84
2022/01/27 10:02:00;;;;;;;21.02;4.10;;;;;;;;;;4966596;28;20022;-84
2022/01/27 10:04:40;;;;;;;11.75;3.85;;;;;;;;;;4943465;28;20039;-84
2022/01/27 10:07:06;;;;;;;25.23;3.90;;;;;;;;;;4962135;28;20039;-83
2022/01/27 10:09:32;;;;;;;18.30;3.83;;;;;;;;;;4948864;28;20102;-81
2022/01/27 10:12:02;;;;;;;18.45;4.43;;;;;;;;;;4949376;28;20036;-84
2022/01/27 10:14:35;;;;;;;20.88;4.63;;;;;;;;;;4963996;28;20077;-84
2022/01/27 10:17:02;;;;;;;24.23;4.00;;;;;;;;;;4952487;28;20135;-83
2022/01/27 10:19:29;;;;;;;23.45;4.00;;;;;;;;;;4942347;28;20033;-84
2022/01/27 10:22:03;;;;;;;22.67;3.75;;;;;;;;;;4951801;28;20134;-83
2022/01/27 10:24:30;;;;;;;25.23;4.18;;;;;;;;;;4946697;28;20495;-83
2022/01/27 10:30:36;;;;;;;25.15;4.00;;;;;;;;;;4966455;28;20135;-84
2022/01/27 10:32:46;;;;;;;15.20;3.22;;;;;;;;;;4958067;28;20123;-84
2022/01/27 10:35:13;;;;;;;18.88;4.03;;;;;;;;;;4963771;28;20062;-84
2022/01/27 10:37:54;;;;;;;28.30;3.67;;;;;;;;;;4966749;28;22024;-84
2022/01/27 10:40:26;;;;;;;16.60;4.13;;;;;;;;;;4970099;28;20722;-83
2022/01/27 10:43:02;;;;;;;19.70;2.72;;;;;;;;;;4945537;28;20042;-84
2022/01/27 10:45:28;;;;;;;17.55;2.72;;;;;;;;;;4962778;28;20106;-84
2022/01/27 10:48:25;;;;;;;21.90;4.03;;;;;;;;;;4951452;28;20031;-84
2022/01/27 10:51:00;;;;;;;18.02;2.97;;;;;;;;;;4945442;28;20398;-84
2022/01/27 10:53:46;;;;;;;23.52;4.90;;;;;;;;;;4951178;28;20118;-84
2022/01/27 10:56:18;;;;;;;14.52;2.70;;;;;;;;;;4977377;28;20751;-84
2022/01/27 10:58:44;;;;;;;27.70;4.03;;;;;;;;;;4964791;28;20490;-84
2022/01/27 11:01:11;;;;;;;23.77;3.83;;;;;;;;;;4950709;28;20435;-84
2022/01/27 11:03:37;;;;;;;14.68;3.20;;;;;;;;;;4948180;28;20823;-84
2022/01/27 11:06:10;;;;;;;26.08;3.83;;;;;;;;;;4968363;28;20054;-84
2022/01/27 11:08:39;;;;;;;21.27;4.90;;;;;;;;;;4964582;28;20105;-84
2022/01/27 11:11:05;;;;;;;17.83;4.15;;;;;;;;;;4948222;28;20523;-84
2022/01/27 11:13:33;;;;;;;19.13;3.25;;;;;;;;;;4947510;28;20027;-84
2022/01/27 11:16:00;;;;;;;17.48;5.10;;;;;;;;;;4967953;28;20042;-84
2022/01/27 11:18:28;;;;;;;21.88;4.43;;;;;;;;;;4964833;28;20463;-84
2022/01/27 11:21:01;;;;;;;20.40;4.05;;;;;;;;;;4952636;28;20546;-84
2022/01/27 11:26:07;;;;;;;14.88;3.17;;;;;;;;;;4961859;28;20034;-84
2022/01/27 11:28:33;;;;;;;11.73;2.53;;;;;;;;;;4949836;28;20426;-84
2022/01/27 11:31:17;;;;;;;23.10;3.95;;;;;;;;;;4948796;28;20075;-83
2022/01/27 11:33:45;;;;;;;14.60;3.25;;;;;;;;;;4967050;28;20046;-84
2022/01/27 11:36:12;;;;;;;27.25;4.15;;;;;;;;;;4952971;28;20034;-84
2022/01/27 11:38:42;;;;;;;19.50;2.85;;;;;;;;;;4948477;28;20086;-84
2022/01/27 11:41:28;;;;;;;19.90;2.83;;;;;;;;;;4966771;28;20026;-84
2022/01/27 11:44:14;;;;;;;22.67;4.20;;;;;;;;;;4962055;28;20145;-84
2022/01/27 11:46:40;;;;;;;39.67;5.45;;;;;;;;;;4946255;28;20031;-85
2022/01/27 11:49:06;;;;;;;32.40;4.88;;;;;;;;;;4962596;28;20098;-84
2022/01/27 11:51:32;;;;;;;15.25;3.72;;;;;;;;;;4959899;28;20430;-84
2022/01/27 11:54:00;;;;;;;18.98;3.10;;;;;;;;;;4948140;28;20034;-84
2022/01/27 11:56:31;;;;;;;21.25;3.70;;;;;;;;;;4962357;28;20166;-85
2022/01/27 11:58:58;;;;;;;15.88;3.13;;;;;;;;;;4964200;28;20026;-85
2022/01/27 12:01:28;;;;;;;21.98;3.40;;;;;;;;;;4963125;28;20166;-84
2022/01/27 12:04:07;;;;;;;22.60;3.85;;;;;;;;;;4946037;28;20041;-84
2022/01/27 12:06:34;;;;;;;26.58;3.88;;;;;;;;;;4943409;28;20046;-85
2022/01/27 12:09:20;;;;;;;39.30;4.90;;;;;;;;;;4969288;28;20026;-84
2022/01/27 12:11:56;;;;;;;19.08;3.00;;;;;;;;;;4962787;28;20045;-83
2022/01/27 12:14:26;;;;;;;17.98;4.40;;;;;;;;;;4959513;28;20027;-84
2022/01/27 12:17:10;;;;;;;24.10;3.45;;;;;;;;;;4961454;28;20026;-85
2022/01/27 12:19:51;;;;;;;19.83;3.47;;;;;;;;;;4961954;28;20027;-84
2022/01/27 12:22:18;;;;;;;13.02;2.67;;;;;;;;;;4965244;28;20118;-86
2022/01/27 12:24:58;;;;;;;32.15;4.72;;;;;;;;;;4962950;28;20560;-84
2022/01/27 12:27:25;;;;;;;27.70;3.90;;;;;;;;;;4946254;28;20062;-85
2022/01/27 12:29:56;;;;;;;9.63;2.83;;;;;;;;;;4942310;28;20512;-84
2022/01/27 12:32:23;;;;;;;18.77;2.78;;;;;;;;;;4962605;28;20035;-84
2022/01/27 12:34:58;;;;;;;19.13;2.63;;;;;;;;;;4947698;28;20030;-84
2022/01/27 12:37:38;;;;;;;13.25;3.42;;;;;;;;;;4960954;28;20068;-84
2022/01/27 12:40:07;;;;;;;18.73;2.58;;;;;;;;;;4963180;28;20026;-85
2022/01/27 12:42:36;;;;;;;16.60;3.13;;;;;;;;;;4943136;28;20130;-85
2022/01/27 12:45:10;;;;;;;15.73;3.30;;;;;;;;;;4945559;28;20034;-84
2022/01/27 12:47:40;;;;;;;31.90;4.40;;;;;;;;;;4963770;28;20653;-85
2022/01/27 12:50:09;;;;;;;20.40;3.25;;;;;;;;;;4942535;28;20086;-85
2022/01/27 12:52:47;;;;;;;20.58;3.92;;;;;;;;;;4948323;28;20038;-85
2022/01/27 12:55:14;;;;;;;24.23;2.83;;;;;;;;;;4946554;28;20035;-84
2022/01/27 12:57:40;;;;;;;11.68;2.63;;;;;;;;;;4961276;28;20034;-87
2022/01/27 13:00:08;;;;;;;27.73;3.72;;;;;;;;;;4945398;28;20035;-84
2022/01/27 13:02:34;;;;;;;17.55;2.72;;;;;;;;;;4962158;28;20495;-85
2022/01/27 13:05:01;;;;;;;19.17;3.20;;;;;;;;;;4935771;28;20042;-84
2022/01/27 13:07:28;;;;;;;30.60;3.75;;;;;;;;;;4942468;28;20071;-85
2022/01/27 13:10:04;;;;;;;22.83;3.78;;;;;;;;;;4950090;28;20055;-84
2022/01/27 13:12:52;;;;;;;;;;;;;;;;;;4944089;28;20603;-85
2022/01/27 13:15:20;;;;;;;19.55;4.00;;;;;;;;;;4949369;28;19918;-85
2022/01/27 13:18:00;;;;;;;21.95;3.17;;;;;;;;;;4941537;28;20035;-85
2022/01/27 13:20:32;;;;;;;12.73;2.33;;;;;;;;;;4947645;28;20042;-84
2022/01/27 13:23:09;;;;;;;18.13;3.20;;;;;;;;;;4966337;28;20103;-85
2022/01/27 13:25:47;;;;;;;14.15;2.88;;;;;;;;;;4962757;28;20026;-85
2022/01/27 13:28:17;;;;;;;19.30;4.13;;;;;;;;;;4948186;28;20039;-85
2022/01/27 13:30:44;;;;;;;27.85;4.25;;;;;;;;;;4943536;28;20031;-85
2022/01/27 13:33:13;;;;;;;27.50;3.83;;;;;;;;;;4965856;28;20031;-84
2022/01/27 13:35:39;;;;;;;17.05;3.38;;;;;;;;;;4943058;28;20368;-84
2022/01/27 13:38:24;;;;;;;22.65;2.95;;;;;;;;;;4964963;28;20082;-85
2022/01/27 13:43:45;;;;;;;29.77;3.63;;;;;;;;;;4982564;28;20093;-84
2022/01/27 13:46:12;;;;;;;22.27;4.07;;;;;;;;;;4976814;28;20031;-85
2022/01/27 13:48:45;;;;;;;11.88;2.92;;;;;;;;;;4996983;28;20182;-85
2022/01/27 13:51:22;;;;;;;28.10;5.50;;;;;;;;;;4964949;28;20475;-85
2022/01/27 13:54:01;;;;;;;20.05;3.35;;;;;;;;;;4969248;28;20442;-85
2022/01/27 13:56:49;;;;;;;16.27;2.97;;;;;;;;;;4980080;28;20475;-85
2022/01/27 13:59:22;;;;;;;14.27;3.08;;;;;;;;;;4987583;28;20026;-85
2022/01/27 14:01:48;;;;;;;32.33;3.53;;;;;;;;;;4985223;28;20031;-85
2022/01/27 14:04:15;;;;;;;17.48;2.58;;;;;;;;;;4973538;28;20640;-85
2022/01/27 14:07:07;;;;;;;20.17;3.33;;;;;;;;;;4966828;28;20038;-85
2022/01/27 14:09:40;;;;;;;27.00;3.83;;;;;;;;;;4979659;28;20050;-85
2022/01/27 14:12:06;;;;;;;12.73;3.75;;;;;;;;;;4969056;28;20041;-85
2022/01/27 14:14:46;;;;;;;16.13;2.10;;;;;;;;;;4973294;28;20046;-85
2022/01/27 14:17:38;;;;;;;35.90;3.95;;;;;;;;;;4969578;28;20027;-84
2022/01/27 14:20:13;;;;;;;34.95;4.85;;;;;;;;;;4977089;28;20478;-85
2022/01/27 14:22:50;;;;;;;13.73;3.42;;;;;;;;;;4969840;28;20027;-85
2022/01/27 14:25:22;;;;;;;31.13;3.70;;;;;;;;;;4967410;28;20517;-85
2022/01/27 14:27:48;;;;;;;36.65;4.80;;;;;;;;;;4967262;28;20488;-85
2022/01/27 14:30:17;;;;;;;28.83;4.63;;;;;;;;;;4967789;28;20117;-83
2022/01/27 14:32:44;;;;;;;24.50;3.55;;;;;;;;;;4983850;28;20034;-85
2022/01/27 14:35:11;;;;;;;12.27;1.98;;;;;;;;;;4967830;28;20453;-85
2022/01/27 14:37:39;;;;;;;25.42;4.00;;;;;;;;;;4964040;28;20695;-85
2022/01/27 14:40:06;;;;;;;26.95;3.97;;;;;;;;;;4951422;28;20611;-85
2022/01/27 14:42:34;;;;;;;22.30;3.22;;;;;;;;;;4962673;28;20510;-85
2022/01/27 14:45:00;;;;;;;23.42;2.95;;;;;;;;;;4963893;28;20027;-85
2022/01/27 14:47:27;;;;;;;18.27;2.47;;;;;;;;;;4969707;28;20033;-84
2022/01/27 14:49:53;;;;;;;20.60;2.40;;;;;;;;;;4942466;28;20094;-85
2022/01/27 14:52:27;;;;;;;24.40;3.33;;;;;;;;;;4961848;28;20055;-85
2022/01/27 14:54:53;;;;;;;25.65;2.97;;;;;;;;;;4944735;28;20030;-85
2022/01/27 14:57:19;;;;;;;17.42;2.70;;;;;;;;;;4965550;28;20078;-85
2022/01/27 14:59:45;;;;;;;36.97;5.32;;;;;;;;;;4946709;28;20145;-84
2022/01/27 15:02:11;;;;;;;11.27;2.30;;;;;;;;;;4949618;28;20033;-85
2022/01/27 15:04:38;;;;;;;16.80;3.80;;;;;;;;;;4943366;28;20039;-85
2022/01/27 15:07:04;;;;;;;14.15;2.40;;;;;;;;;;4962324;28;20262;-85
2022/01/27 15:09:31;;;;;;;29.08;3.88;;;;;;;;;;4975481;28;20031;-85
2022/01/27 15:11:57;;;;;;;27.63;4.00;;;;;;;;;;4947478;28;20038;-85
2022/01/27 15:19:53;;;;;;;26.30;2.75;;;;;;;;;;4967646;28;20114;-86
2022/01/27 15:22:20;;;;;;;24.02;3.28;;;;;;;;;;4946172;28;20027;-85
2022/01/27 15:24:46;;;;;;;8.57;2.58;;;;;;;;;;4968050;28;20031;-85
2022/01/27 15:27:12;;;;;;;16.85;3.60;;;;;;;;;;4966203;28;20114;-85
2022/01/27 15:29:40;;;;;;;14.40;2.85;;;;;;;;;;4947518;28;20027;-85
2022/01/27 15:32:08;;;;;;;32.45;2.60;;;;;;;;;;4949468;28;20566;-85
2022/01/27 15:34:35;;;;;;;22.80;3.13;;;;;;;;;;4958704;28;20027;-84
2022/01/27 15:37:01;;;;;;;28.33;3.25;;;;;;;;;;4952432;28;20023;-85
2022/01/27 15:39:48;;;;;;;32.35;4.50;;;;;;;;;;4941026;28;20058;-85